Time;durP1;ratioP1;P1;durP2;ratioP2;P2;SDS_P1;SDS_P2;PMS_P1;PMS_P2;Temp;Humidity;BMP_temperature;BMP_pressure;BME280_temperature;BME280_humidity;BME280_pressure;Samples;Min_cycle;Max_cycle;Signal;HPM_P1;HPM_P2
2024/02/21 00:02:12;;;;;;;;;;;;;;;8.61;100.00;102149.97;5098732;28;20213;-77
2024/02/21 00:04:38;;;;;;;;;;;;;;;8.60;100.00;102147.38;5099195;28;19916;-78
2024/02/21 00:07:03;;;;;;;;;;;;;;;8.59;100.00;102136.06;5099371;28;19993;-79
2024/02/21 00:09:29;;;;;;;;;;;;;;;8.58;100.00;102134.31;5094303;28;19921;-78
2024/02/21 00:11:54;;;;;;;;;;;;;;;8.57;100.00;102140.44;5078750;28;19923;-78
2024/02/21 00:14:19;;;;;;;;;;;;;;;8.57;100.00;102140.44;5078964;28;19916;-78
2024/02/21 00:16:45;;;;;;;;;;;;;;;8.56;100.00;102136.09;5079119;28;20216;-79
2024/02/21 00:19:10;;;;;;;;;;;;;;;8.57;100.00;102127.38;5078279;28;20208;-78
2024/02/21 00:21:35;;;;;;;;;;;;;;;8.60;100.00;102129.09;5079249;28;19916;-78
2024/02/21 00:24:00;;;;;;;;;;;;;;;8.60;100.00;102124.75;5078953;28;19917;-78
2024/02/21 00:26:26;;;;;;;;;;;;;;;8.57;100.00;102152.66;5078868;28;19975;-78
2024/02/21 00:28:51;;;;;;;;;;;;;;;8.58;100.00;102146.53;5078778;28;19928;-78
2024/02/21 00:31:16;;;;;;;;;;;;;;;8.56;100.00;102138.69;5078785;28;19923;-78
2024/02/21 00:33:41;;;;;;;;;;;;;;;8.55;100.00;102147.44;5061153;28;19959;-78
2024/02/21 00:36:07;;;;;;;;;;;;;;;8.52;100.00;102157.91;5079007;28;20227;-78
2024/02/21 00:38:32;;;;;;;;;;;;;;;8.53;100.00;102145.72;5078779;28;19924;-78
2024/02/21 00:40:57;;;;;;;;;;;;;;;8.53;100.00;102141.38;5078825;28;19996;-78
2024/02/21 00:43:25;;;;;;;;;;;;;;;8.53;100.00;102145.72;5078802;28;19916;-79
2024/02/21 00:45:50;;;;;;;;;;;;;;;8.53;100.00;102136.16;5078477;28;19915;-78
2024/02/21 00:48:16;;;;;;;;;;;;;;;8.54;100.00;102145.69;5078653;28;19916;-79
2024/02/21 00:50:41;;;;;;;;;;;;;;;8.58;100.00;102123.88;5078744;28;19923;-78
2024/02/21 00:53:06;;;;;;;;;;;;;;;8.56;100.00;102130.88;5078497;28;19947;-78
2024/02/21 00:55:31;;;;;;;;;;;;;;;8.57;100.00;102127.38;5060571;28;19938;-78
2024/02/21 00:57:57;;;;;;;;;;;;;;;8.53;100.00;102125.72;5078542;28;19978;-78
2024/02/21 01:00:22;;;;;;;;;;;;;;;8.53;100.00;102117.88;5078366;28;19916;-78
2024/02/21 01:02:47;;;;;;;;;;;;;;;8.54;100.00;102116.97;5078677;28;19943;-79
2024/02/21 01:05:12;;;;;;;;;;;;;;;8.55;100.00;102129.16;5077849;28;20173;-78
2024/02/21 01:07:38;;;;;;;;;;;;;;;8.53;100.00;102112.66;5078283;28;19917;-78
2024/02/21 01:10:03;;;;;;;;;;;;;;;8.55;100.00;102108.28;5078388;28;19920;-78
2024/02/21 01:12:28;;;;;;;;;;;;;;;8.55;100.00;102096.94;5078417;28;19916;-78
2024/02/21 01:14:54;;;;;;;;;;;;;;;8.56;100.00;102109.97;5059720;28;20215;-78
2024/02/21 01:17:19;;;;;;;;;;;;;;;8.57;100.00;102098.66;5077793;28;20250;-79
2024/02/21 01:19:46;;;;;;;;;;;;;;;8.57;100.00;102103.03;5078211;28;20208;-78
2024/02/21 01:22:11;;;;;;;;;;;;;;;8.57;100.00;102095.19;5077683;28;19916;-78
2024/02/21 01:24:36;;;;;;;;;;;;;;;8.59;100.00;102103.88;5078182;28;19916;-78
2024/02/21 01:27:02;;;;;;;;;;;;;;;8.58;100.00;102092.53;5077362;28;19917;-77
2024/02/21 01:29:27;;;;;;;;;;;;;;;8.58;100.00;102089.06;5077540;28;19977;-78
2024/02/21 01:31:52;;;;;;;;;;;;;;;8.57;100.00;102085.59;5077536;28;19908;-78
2024/02/21 01:34:17;;;;;;;;;;;;;;;8.55;100.00;102083.88;5077514;28;19927;-77
2024/02/21 01:36:43;;;;;;;;;;;;;;;8.55;100.00;102082.16;5059641;28;19979;-78
2024/02/21 01:39:08;;;;;;;;;;;;;;;8.55;100.00;102082.16;5075156;28;19989;-78
2024/02/21 01:41:33;;;;;;;;;;;;;;;8.59;100.00;102069.94;5058451;28;20227;-78
2024/02/21 01:43:58;;;;;;;;;;;;;;;8.53;100.00;102068.25;5057512;28;20202;-78
2024/02/21 01:46:28;;;;;;;;;;;;;;;8.54;100.00;102072.59;5057253;28;19916;-78
2024/02/21 01:48:59;;;;;;;;;;;;;;;8.56;100.00;102077.78;5057120;28;19913;-78
2024/02/21 01:51:25;;;;;;;;;;;;;;;8.53;100.00;102070.00;5057153;28;20212;-78
2024/02/21 01:53:51;;;;;;;;;;;;;;;8.53;100.00;102073.47;5057030;28;19917;-77
2024/02/21 01:56:17;;;;;;;;;;;;;;;8.51;100.00;102072.63;5057425;28;19951;-78
2024/02/21 01:58:42;;;;;;;;;;;;;;;8.52;100.00;102063.91;5072913;28;19921;-78
2024/02/21 02:01:08;;;;;;;;;;;;;;;8.52;100.00;102065.66;5056771;28;19955;-78
2024/02/21 02:03:33;;;;;;;;;;;;;;;8.57;100.00;102058.66;5057756;28;19917;-77
2024/02/21 02:05:59;;;;;;;;;;;;;;;8.58;100.00;102052.53;5057298;28;19916;-78
2024/02/21 02:08:24;;;;;;;;;;;;;;;8.56;100.00;102047.31;5072626;28;20443;-78
2024/02/21 02:10:49;;;;;;;;;;;;;;;8.56;100.00;102047.31;5072608;28;19992;-78
2024/02/21 02:13:15;;;;;;;;;;;;;;;8.52;100.00;102045.63;5076925;28;20341;-77
2024/02/21 02:15:40;;;;;;;;;;;;;;;8.54;100.00;102051.69;5077107;28;19947;-78
2024/02/21 02:18:05;;;;;;;;;;;;;;;8.57;100.00;102040.38;5076739;28;19917;-78
2024/02/21 02:20:30;;;;;;;;;;;;;;;8.55;100.00;102050.81;5076502;28;20387;-78
2024/02/21 02:22:57;;;;;;;;;;;;;;;8.53;100.00;102044.75;5076571;28;19909;-78
2024/02/21 02:25:22;;;;;;;;;;;;;;;8.50;100.00;102044.78;5076679;28;19916;-78
2024/02/21 02:27:47;;;;;;;;;;;;;;;8.52;100.00;102027.34;5076751;28;19923;-78
2024/02/21 02:30:13;;;;;;;;;;;;;;;8.49;100.00;102034.38;5076144;28;19924;-77
2024/02/21 02:32:38;;;;;;;;;;;;;;;8.49;100.00;102029.13;5058847;28;20254;-78
2024/02/21 02:35:04;;;;;;;;;;;;;;;8.48;100.00;102027.41;5076257;28;20131;-77
2024/02/21 02:37:29;;;;;;;;;;;;;;;8.49;100.00;102023.91;5076417;28;19952;-78
2024/02/21 02:39:54;;;;;;;;;;;;;;;8.50;100.00;102023.91;5084470;28;20194;-78
2024/02/21 02:42:19;;;;;;;;;;;;;;;8.49;100.00;102030.00;5097107;28;20111;-78
2024/02/21 02:44:45;;;;;;;;;;;;;;;8.50;100.00;102015.22;5096886;28;20127;-78
2024/02/21 02:47:10;;;;;;;;;;;;;;;8.48;100.00;102017.84;5096623;28;20195;-77
2024/02/21 02:49:35;;;;;;;;;;;;;;;8.49;100.00;102011.72;5078703;28;19955;-78
2024/02/21 02:52:00;;;;;;;;;;;;;;;8.50;100.00;102015.22;5078219;28;19919;-78
2024/02/21 02:54:26;;;;;;;;;;;;;;;8.54;100.00;101999.47;5078279;28;19946;-78
2024/02/21 02:56:51;;;;;;;;;;;;;;;8.56;100.00;101991.63;5096385;28;19916;-77
2024/02/21 02:59:16;;;;;;;;;;;;;;;8.55;100.00;101982.03;5096414;28;20014;-78
2024/02/21 03:01:42;;;;;;;;;;;;;;;8.55;100.00;101982.94;5096130;28;20138;-77
2024/02/21 03:04:07;;;;;;;;;;;;;;;8.53;100.00;101978.59;5096477;28;19908;-77
2024/02/21 03:06:33;;;;;;;;;;;;;;;8.56;100.00;101981.19;5096711;28;19916;-77
2024/02/21 03:08:59;;;;;;;;;;;;;;;8.56;100.00;101975.97;5096491;28;19955;-78
2024/02/21 03:11:28;;;;;;;;;;;;;;;8.56;100.00;101965.50;5096383;28;19916;-77
2024/02/21 03:13:54;;;;;;;;;;;;;;;8.58;100.00;101977.66;5096136;28;19923;-78
2024/02/21 03:16:19;;;;;;;;;;;;;;;8.55;100.00;101969.88;5096299;28;19916;-78
2024/02/21 03:18:45;;;;;;;;;;;;;;;8.57;100.00;101954.19;5096619;28;19938;-78
2024/02/21 03:21:10;;;;;;;;;;;;;;;8.57;100.00;101951.59;5095777;28;20119;-78
2024/02/21 03:23:36;;;;;;;;;;;;;;;8.54;100.00;101942.03;5096457;28;20197;-77
2024/02/21 03:26:01;;;;;;;;;;;;;;;8.58;100.00;101943.69;5095537;28;20231;-77
2024/02/21 03:28:26;;;;;;;;;;;;;;;8.57;100.00;101947.22;5095639;28;19984;-78
2024/02/21 03:30:52;;;;;;;;;;;;;;;8.60;100.00;101948.91;5089504;28;20223;-79
2024/02/21 03:33:17;;;;;;;;;;;;;;;8.57;100.00;101941.13;5075296;28;19987;-76
2024/02/21 03:35:42;;;;;;;;;;;;;;;8.61;100.00;101934.97;5076028;28;19987;-77
2024/02/21 03:38:07;;;;;;;;;;;;;;;8.57;100.00;101933.31;5074907;28;20115;-77
2024/02/21 03:40:33;;;;;;;;;;;;;;;8.60;100.00;101934.13;5088905;28;20124;-79
2024/02/21 03:42:58;;;;;;;;;;;;;;;8.56;100.00;101940.25;5094945;28;19920;-79
2024/02/21 03:45:23;;;;;;;;;;;;;;;8.62;100.00;101936.69;5095469;28;19961;-79
2024/02/21 03:47:49;;;;;;;;;;;;;;;8.63;100.00;101941.88;5095439;28;19916;-78
2024/02/21 03:50:14;;;;;;;;;;;;;;;8.63;100.00;101938.44;5094965;28;19963;-76
2024/02/21 03:52:39;;;;;;;;;;;;;;;8.62;100.00;101928.84;5095677;28;19923;-76
2024/02/21 03:55:05;;;;;;;;;;;;;;;8.55;100.00;101930.72;5095333;28;19983;-77
2024/02/21 03:57:30;;;;;;;;;;;;;;;8.58;100.00;101920.19;5095427;28;19943;-76
2024/02/21 03:59:55;;;;;;;;;;;;;;;8.54;100.00;101918.53;5095306;28;20171;-78
2024/02/21 04:02:20;;;;;;;;;;;;;;;8.59;100.00;101915.88;5095600;28;20260;-78
2024/02/21 04:04:47;;;;;;;;;;;;;;;8.53;100.00;101913.31;5095926;28;19908;-78
2024/02/21 04:07:13;;;;;;;;;;;;;;;8.59;100.00;101918.47;5095003;28;19920;-78
2024/02/21 04:09:38;;;;;;;;;;;;;;;8.55;100.00;101920.28;5095421;28;19920;-78
2024/02/21 04:12:04;;;;;;;;;;;;;;;8.54;100.00;101926.38;5095254;28;19923;-78
2024/02/21 04:14:29;;;;;;;;;;;;;;;8.57;100.00;101926.31;5095046;28;19919;-78
2024/02/21 04:16:54;;;;;;;;;;;;;;;8.53;100.00;101921.16;5094927;28;19923;-78
2024/02/21 04:19:19;;;;;;;;;;;;;;;8.53;100.00;101924.66;5094845;28;19916;-78
2024/02/21 04:21:45;;;;;;;;;;;;;;;8.51;100.00;101918.56;5077029;28;19951;-78
2024/02/21 04:24:10;;;;;;;;;;;;;;;8.52;100.00;101924.69;5094906;28;19945;-78
2024/02/21 04:26:35;;;;;;;;;;;;;;;8.52;100.00;101919.44;5077021;28;19916;-78
2024/02/21 04:29:00;;;;;;;;;;;;;;;8.53;100.00;101910.72;5095142;28;19951;-78
2024/02/21 04:31:26;;;;;;;;;;;;;;;8.52;100.00;101909.88;5094875;28;19962;-77
2024/02/21 04:33:51;;;;;;;;;;;;;;;8.51;100.00;101904.66;5094627;28;19915;-77
2024/02/21 04:36:16;;;;;;;;;;;;;;;8.52;100.00;101899.41;5094973;28;19983;-78
2024/02/21 04:38:41;;;;;;;;;;;;;;;8.55;100.00;101893.28;5095327;28;19916;-77
2024/02/21 04:41:07;;;;;;;;;;;;;;;8.55;100.00;101893.28;5094674;28;19916;-78
2024/02/21 04:43:33;;;;;;;;;;;;;;;8.49;100.00;101888.16;5097470;28;19908;-78
2024/02/21 04:45:58;;;;;;;;;;;;;;;8.47;100.00;101889.94;5098754;28;20009;-78
2024/02/21 04:48:23;;;;;;;;;;;;;;;8.49;100.00;101882.94;5080709;28;20222;-78
2024/02/21 04:50:48;;;;;;;;;;;;;;;8.49;100.00;101890.78;5080501;28;19920;-78
2024/02/21 04:53:14;;;;;;;;;;;;;;;8.48;100.00;101889.91;5098990;28;19947;-78
2024/02/21 04:55:40;;;;;;;;;;;;;;;8.51;100.00;101883.78;5098646;28;20148;-78
2024/02/21 04:58:05;;;;;;;;;;;;;;;8.50;100.00;101872.47;5098398;28;19943;-78
2024/02/21 05:00:30;;;;;;;;;;;;;;;8.53;100.00;101869.81;5098424;28;20223;-78
2024/02/21 05:02:55;;;;;;;;;;;;;;;8.51;100.00;101860.28;5098297;28;19916;-77
2024/02/21 05:05:21;;;;;;;;;;;;;;;8.50;100.00;101856.81;5098592;28;20171;-78
2024/02/21 05:07:46;;;;;;;;;;;;;;;8.43;100.00;101849.97;5098500;28;20239;-78
2024/02/21 05:10:12;;;;;;;;;;;;;;;8.41;100.00;101847.34;5098358;28;19921;-78
2024/02/21 05:12:37;;;;;;;;;;;;;;;8.43;100.00;101840.38;5098297;28;20146;-78
2024/02/21 05:15:03;;;;;;;;;;;;;;;8.44;100.00;101838.63;5079969;28;19916;-77
2024/02/21 05:17:28;;;;;;;;;;;;;;;8.42;100.00;101840.38;5098304;28;19939;-77
2024/02/21 05:19:53;;;;;;;;;;;;;;;8.44;100.00;101836.88;5098165;28;19916;-78
2024/02/21 05:22:19;;;;;;;;;;;;;;;8.38;100.00;101829.09;5098640;28;19947;-78
2024/02/21 05:24:44;;;;;;;;;;;;;;;8.37;100.00;101822.19;5098461;28;19916;-78
2024/02/21 05:27:09;;;;;;;;;;;;;;;8.37;100.00;101822.19;5097449;28;20184;-78
2024/02/21 05:29:34;;;;;;;;;;;;;;;8.37;100.00;101813.50;5097833;28;19920;-78
2024/02/21 05:32:00;;;;;;;;;;;;;;;8.27;100.00;101803.16;5097763;28;19920;-78
2024/02/21 05:34:25;;;;;;;;;;;;;;;8.31;100.00;101806.59;5097713;28;20150;-78
2024/02/21 05:36:51;;;;;;;;;;;;;;;8.35;100.00;101799.56;5097763;28;20018;-78
2024/02/21 05:39:17;;;;;;;;;;;;;;;8.40;100.00;101790.81;5097766;28;19927;-78
2024/02/21 05:41:42;;;;;;;;;;;;;;;8.43;100.00;101787.31;5097780;28;20203;-77
2024/02/21 05:44:08;;;;;;;;;;;;;;;8.43;100.00;101780.34;5097504;28;19935;-77
2024/02/21 05:46:33;;;;;;;;;;;;;;;8.42;100.00;101785.56;5079674;28;20238;-77
2024/02/21 05:48:58;;;;;;;;;;;;;;;8.44;100.00;101784.69;5097566;28;19920;-77
2024/02/21 05:51:23;;;;;;;;;;;;;;;8.43;100.00;101787.31;5097629;28;19916;-77
2024/02/21 05:53:49;;;;;;;;;;;;;;;8.40;100.00;101780.38;5097543;28;19930;-77
2024/02/21 05:56:14;;;;;;;;;;;;;;;8.42;100.00;101770.78;5097179;28;20258;-77
2024/02/21 05:58:40;;;;;;;;;;;;;;;8.40;100.00;101769.03;5097385;28;19975;-77
2024/02/21 06:01:06;;;;;;;;;;;;;;;8.38;100.00;101771.69;5097180;28;19916;-77
2024/02/21 06:03:32;;;;;;;;;;;;;;;8.40;100.00;101764.72;5097617;28;19957;-77
2024/02/21 06:05:57;;;;;;;;;;;;;;;8.38;100.00;101763.00;5097936;28;19916;-77
2024/02/21 06:08:22;;;;;;;;;;;;;;;8.37;100.00;101751.69;5096860;28;19908;-77
2024/02/21 06:10:48;;;;;;;;;;;;;;;8.40;100.00;101766.44;5097104;28;19953;-77
2024/02/21 06:13:13;;;;;;;;;;;;;;;8.42;100.00;101767.31;5096415;28;19908;-77
2024/02/21 06:15:39;;;;;;;;;;;;;;;8.37;100.00;101764.75;5078616;28;19979;-77
2024/02/21 06:18:04;;;;;;;;;;;;;;;8.36;100.00;101763.00;5096737;28;19916;-77
2024/02/21 06:20:29;;;;;;;;;;;;;;;8.36;100.00;101770.84;5096711;28;20007;-77
2024/02/21 06:22:54;;;;;;;;;;;;;;;8.34;100.00;101769.16;5096471;28;19914;-77
2024/02/21 06:25:20;;;;;;;;;;;;;;;8.37;100.00;101779.56;5096757;28;19916;-77
2024/02/21 06:27:45;;;;;;;;;;;;;;;8.37;100.00;101779.56;5096698;28;19908;-77
2024/02/21 06:30:10;;;;;;;;;;;;;;;8.36;100.00;101780.44;5096627;28;19912;-77
2024/02/21 06:32:36;;;;;;;;;;;;;;;8.36;100.00;101773.47;5096612;28;20231;-77
2024/02/21 06:35:04;;;;;;;;;;;;;;;8.24;100.00;101771.91;5096253;28;19919;-77
2024/02/21 06:37:29;;;;;;;;;;;;;;;8.30;100.00;101763.13;5078112;28;19961;-77
2024/02/21 06:39:55;;;;;;;;;;;;;;;8.32;100.00;101760.50;5096079;28;19928;-77
2024/02/21 06:42:21;;;;;;;;;;;;;;;8.38;100.00;101756.00;5096453;28;20092;-77
2024/02/21 06:44:46;;;;;;;;;;;;;;;8.38;100.00;101749.94;5096292;28;19938;-77
2024/02/21 06:47:12;;;;;;;;;;;;;;;8.37;100.00;101746.47;5095886;28;20216;-77
2024/02/21 06:49:37;;;;;;;;;;;;;;;8.36;100.00;101744.75;5086135;28;19931;-77
2024/02/21 06:52:03;;;;;;;;;;;;;;;8.40;100.00;101737.72;5075660;28;19916;-77
2024/02/21 06:54:28;;;;;;;;;;;;;;;8.42;100.00;101730.75;5075830;28;19923;-77
2024/02/21 06:56:54;;;;;;;;;;;;;;;8.40;100.00;101737.72;5075942;28;20123;-77
2024/02/21 06:59:19;;;;;;;;;;;;;;;8.41;100.00;101739.47;5057675;28;19959;-77
2024/02/21 07:01:54;;;;;;;;;;;;;;;8.38;100.00;101740.34;5076199;28;20112;-77
2024/02/21 07:04:19;;;;;;;;;;;;;;;8.37;100.00;101737.78;5057652;28;19924;-77
2024/02/21 07:06:45;;;;;;;;;;;;;;;8.38;100.00;101732.53;5075914;28;19916;-77
2024/02/21 07:09:10;;;;;;;;;;;;;;;8.42;100.00;101728.16;5059291;28;19920;-77
2024/02/21 07:11:35;;;;;;;;;;;;;;;8.40;100.00;101717.72;5096154;28;19908;-77
2024/02/21 07:14:01;;;;;;;;;;;;;;;8.42;100.00;101721.19;5077294;28;19923;-77
2024/02/21 07:16:28;;;;;;;;;;;;;;;8.40;100.00;101722.06;5077064;28;19920;-77
2024/02/21 07:18:53;;;;;;;;;;;;;;;8.38;100.00;101719.47;5077276;28;19953;-77
2024/02/21 07:21:18;;;;;;;;;;;;;;;8.37;100.00;101703.88;5095901;28;20134;-77
2024/02/21 07:23:44;;;;;;;;;;;;;;;8.36;100.00;101705.59;5095762;28;20155;-77
2024/02/21 07:26:09;;;;;;;;;;;;;;;8.36;100.00;101699.53;5095304;28;19916;-77
2024/02/21 07:28:34;;;;;;;;;;;;;;;8.33;100.00;101689.13;5095933;28;19909;-77
2024/02/21 07:31:00;;;;;;;;;;;;;;;8.33;100.00;101682.19;5095230;28;19920;-77
2024/02/21 07:33:25;;;;;;;;;;;;;;;8.34;100.00;101683.03;5077065;28;19942;-77
2024/02/21 07:35:50;;;;;;;;;;;;;;;8.37;100.00;101680.38;5077403;28;20046;-77
2024/02/21 07:38:18;;;;;;;;;;;;;;;8.40;100.00;101680.28;5077577;28;19915;-77
2024/02/21 07:40:44;;;;;;;;;;;;;;;8.38;100.00;101684.69;5095968;28;20426;-77
2024/02/21 07:43:09;;;;;;;;;;;;;;;8.35;100.00;101683.00;5095335;28;19923;-77
2024/02/21 07:45:34;;;;;;;;;;;;;;;8.36;100.00;101679.50;5095866;28;19971;-77
2024/02/21 07:48:00;;;;;;;;;;;;;;;8.38;100.00;101671.63;5076918;28;19916;-77
2024/02/21 07:50:25;;;;;;;;;;;;;;;8.37;100.00;101659.50;5095463;28;20057;-78
2024/02/21 07:52:50;;;;;;;;;;;;;;;8.36;100.00;101660.38;5080168;28;19920;-77
2024/02/21 07:55:15;;;;;;;;;;;;;;;8.38;100.00;101641.16;5074937;28;19916;-77
2024/02/21 07:57:41;;;;;;;;;;;;;;;8.35;100.00;101643.84;5057002;28;19993;-77
2024/02/21 08:00:09;;;;;;;;;;;;;;;8.35;100.00;101640.38;5071036;28;19921;-77
2024/02/21 08:02:34;;;;;;;;;;;;;;;8.36;100.00;101653.38;5081076;28;19916;-77
2024/02/21 08:04:59;;;;;;;;;;;;;;;8.37;100.00;101646.44;5082328;28;19947;-77
2024/02/21 08:07:25;;;;;;;;;;;;;;;8.37;100.00;101651.66;5083292;28;19916;-77
2024/02/21 08:09:50;;;;;;;;;;;;;;;8.33;100.00;101644.75;5074003;28;19929;-77
2024/02/21 08:12:17;;;;;;;;;;;;;;;8.30;100.00;101643.06;5066807;28;19983;-77
2024/02/21 08:14:43;;;;;;;;;;;;;;;8.36;100.00;101635.13;5073273;28;19928;-77
2024/02/21 08:17:09;;;;;;;;;;;;;;;8.37;100.00;101626.41;5072946;28;20359;-77
2024/02/21 08:19:34;;;;;;;;;;;;;;;8.29;100.00;101624.81;5057292;28;19988;-77
2024/02/21 08:22:00;;;;;;;;;;;;;;;8.30;100.00;101622.19;5056861;28;19927;-77
2024/02/21 08:24:25;;;;;;;;;;;;;;;8.32;100.00;101606.50;5066721;28;19920;-77
2024/02/21 08:26:50;;;;;;;;;;;;;;;8.32;100.00;101609.97;5060403;28;19924;-77
2024/02/21 08:29:15;;;;;;;;;;;;;;;8.32;100.00;101609.13;5059147;28;19936;-77
2024/02/21 08:31:41;;;;;;;;;;;;;;;8.32;100.00;101611.72;5058237;28;20865;-78
2024/02/21 08:34:06;;;;;;;;;;;;;;;8.31;100.00;101599.56;5070800;28;19915;-77
2024/02/21 08:36:32;;;;;;;;;;;;;;;8.32;100.00;101599.53;5061772;28;19931;-77
2024/02/21 08:38:57;;;;;;;;;;;;;;;8.33;100.00;101595.16;5071542;28;19923;-77
2024/02/21 08:41:24;;;;;;;;;;;;;;;8.37;100.00;101602.91;5072477;28;19920;-77
2024/02/21 08:43:50;;;;;;;;;;;;;;;8.38;100.00;101590.72;5074519;28;19917;-77
2024/02/21 08:46:15;;;;;;;;;;;;;;;8.36;100.00;101587.28;5074456;28;19917;-78
2024/02/21 08:48:41;;;;;;;;;;;;;;;8.38;100.00;101585.50;5073713;28;20058;-78
2024/02/21 08:51:06;;;;;;;;;;;;;;;8.39;100.00;101579.41;5073882;28;20023;-77
2024/02/21 08:53:31;;;;;;;;;;;;;;;8.43;100.00;101581.09;5073104;28;20119;-77
2024/02/21 08:55:56;;;;;;;;;;;;;;;8.41;100.00;101580.22;5073809;28;20196;-77
2024/02/21 08:58:23;;;;;;;;;;;;;;;8.44;100.00;101572.34;5068033;28;19920;-77
2024/02/21 09:00:48;;;;;;;;;;;;;;;8.34;100.00;101574.25;5052663;28;20296;-77
2024/02/21 09:03:13;;;;;;;;;;;;;;;8.39;100.00;101569.81;5070153;28;19916;-77
2024/02/21 09:05:39;;;;;;;;;;;;;;;8.39;100.00;101558.53;5072930;28;19924;-77
2024/02/21 09:08:04;;;;;;;;;;;;;;;8.41;100.00;101564.56;5073382;28;19920;-77
2024/02/21 09:10:30;;;;;;;;;;;;;;;8.42;100.00;101548.03;5055459;28;19921;-77
2024/02/21 09:12:55;;;;;;;;;;;;;;;8.49;100.00;101544.41;5072471;28;20251;-77
2024/02/21 09:15:21;;;;;;;;;;;;;;;8.54;100.00;101542.56;5072220;28;19920;-77
2024/02/21 09:17:46;;;;;;;;;;;;;;;8.55;100.00;101525.16;5070272;28;19920;-77
2024/02/21 09:20:11;;;;;;;;;;;;;;;8.49;100.00;101525.28;5070238;28;19916;-77
2024/02/21 09:22:39;;;;;;;;;;;;;;;8.50;100.00;101521.78;5069484;28;19924;-77
2024/02/21 09:25:05;;;;;;;;;;;;;;;8.55;100.00;101517.31;5066930;28;20225;-78
2024/02/21 09:27:30;;;;;;;;;;;;;;;8.51;100.00;101493.03;5052016;28;19921;-77
2024/02/21 09:29:55;;;;;;;;;;;;;;;8.56;100.00;101493.78;5052394;28;19931;-77
2024/02/21 09:32:21;;;;;;;;;;;;;;;8.60;100.00;101479.78;5072989;28;19920;-77
2024/02/21 09:34:46;;;;;;;;;;;;;;;8.64;100.00;101475.31;5072282;28;20182;-77
2024/02/21 09:37:12;;;;;;;;;;;;;;;8.63;100.00;101474.47;5071362;28;20116;-77
2024/02/21 09:39:37;;;;;;;;;;;;;;;8.64;100.00;101463.16;5073513;28;19948;-77
2024/02/21 09:42:05;;;;;;;;;;;;;;;8.67;100.00;101467.44;5072941;28;19920;-77
2024/02/21 09:44:34;;;;;;;;;;;;;;;8.69;100.00;101452.59;5072356;28;19920;-78
2024/02/21 09:47:04;;;;;;;;;;;;;;;8.70;100.00;101443.03;5072724;28;19918;-77
2024/02/21 09:49:31;;;;;;;;;;;;;;;8.72;100.00;101433.41;5072781;28;19924;-78
2024/02/21 09:51:57;;;;;;;;;;;;;;;8.72;100.00;101433.41;5072324;28;19959;-77
2024/02/21 09:54:22;;;;;;;;;;;;;;;8.74;100.00;101432.44;5073222;28;19921;-78
2024/02/21 09:56:48;;;;;;;;;;;;;;;8.77;100.00;101429.78;5072637;28;20269;-77
2024/02/21 09:59:16;;;;;;;;;;;;;;;8.78;100.00;101433.25;5072508;28;20165;-77
2024/02/21 10:01:42;;;;;;;;;;;;;;;8.81;100.00;101418.34;5072282;28;19935;-77
2024/02/21 10:04:07;;;;;;;;;;;;;;;8.82;100.00;101412.25;5072361;28;20223;-77
2024/02/21 10:06:33;;;;;;;;;;;;;;;8.84;100.00;101410.47;5053904;28;19927;-77
2024/02/21 10:08:58;;;;;;;;;;;;;;;8.86;100.00;101401.72;5072129;28;19987;-77
2024/02/21 10:11:24;;;;;;;;;;;;;;;8.84;100.00;101381.72;5073169;28;20984;-77
2024/02/21 10:13:50;;;;;;;;;;;;;;;8.86;100.00;101367.75;5071836;28;19944;-77
2024/02/21 10:16:16;;;;;;;;;;;;;;;8.87;100.00;101357.28;5053501;28;19988;-77
2024/02/21 10:18:41;;;;;;;;;;;;;;;8.90;100.00;101351.13;5072209;28;19916;-77
2024/02/21 10:21:07;;;;;;;;;;;;;;;8.91;100.00;101361.50;5071272;28;19920;-77
2024/02/21 10:23:45;;;;;;;;;;;;;;;8.92;100.00;101362.41;5072542;28;20458;-77
2024/02/21 10:26:10;;;;;;;;;;;;;;;8.93;100.00;101362.38;5071674;28;19926;-77
2024/02/21 10:28:38;;;;;;;;;;;;;;;8.97;100.00;101379.66;5070612;28;19951;-77
2024/02/21 10:31:03;;;;;;;;;;;;;;;8.98;100.00;101373.53;5071178;28;19955;-77
2024/02/21 10:33:32;;;;;;;;;;;;;;;9.03;100.00;101378.66;5071734;28;19916;-77
2024/02/21 10:36:05;;;;;;;;;;;;;;;9.02;100.00;101372.56;5053157;28;20290;-78
2024/02/21 10:38:31;;;;;;;;;;;;;;;8.98;100.00;101365.69;5073474;28;19908;-78
2024/02/21 10:40:58;;;;;;;;;;;;;;;8.99;100.00;101353.50;5069618;28;19987;-78
2024/02/21 10:43:25;;;;;;;;;;;;;;;8.99;100.00;101367.41;5070720;28;20313;-77
2024/02/21 10:45:52;;;;;;;;;;;;;;;8.98;100.00;101359.63;5051778;28;19916;-77
2024/02/21 10:48:25;;;;;;;;;;;;;;;8.97;100.00;101352.69;5070256;28;20212;-77
2024/02/21 10:50:57;;;;;;;;;;;;;;;8.97;100.00;101355.31;5069040;28;20139;-77
2024/02/21 10:53:41;;;;;;;;;;;;;;;8.98;100.00;101342.19;5069550;28;19920;-77
2024/02/21 10:56:11;;;;;;;;;;;;;;;8.98;100.00;101352.63;5070309;28;19944;-78
2024/02/21 10:58:37;;;;;;;;;;;;;;;8.96;100.00;101345.75;5053338;28;20203;-77
2024/02/21 11:01:04;;;;;;;;;;;;;;;8.96;100.00;101343.97;5069946;28;20172;-77
2024/02/21 11:03:29;;;;;;;;;;;;;;;8.99;100.00;101336.06;5067250;28;20025;-78
2024/02/21 11:05:54;;;;;;;;;;;;;;;9.05;100.00;101295.00;5071937;28;19924;-77
2024/02/21 11:08:20;;;;;;;;;;;;;;;9.08;100.00;101306.22;5071829;28;19926;-77
2024/02/21 11:10:45;;;;;;;;;;;;;;;9.12;100.00;101297.41;5072748;28;19979;-78
2024/02/21 11:13:11;;;;;;;;;;;;;;;9.12;100.00;101293.94;5054844;28;19943;-77
2024/02/21 11:15:36;;;;;;;;;;;;;;;9.11;100.00;101290.44;5071559;28;19927;-77
2024/02/21 11:18:02;;;;;;;;;;;;;;;9.17;100.00;101292.06;5070812;28;20113;-77
2024/02/21 11:20:36;;;;;;;;;;;;;;;9.15;100.00;101286.00;5067136;28;19939;-77
2024/02/21 11:23:02;;;;;;;;;;;;;;;9.18;100.00;101283.31;5063480;28;20138;-77
2024/02/21 11:25:33;;;;;;;;;;;;;;;9.22;100.00;101256.19;5068338;28;19916;-77
2024/02/21 11:28:06;;;;;;;;;;;;;;;9.25;100.00;101243.03;5068318;28;21011;-77
2024/02/21 11:30:32;;;;;;;;;;;;;;;9.31;100.00;101239.38;5051555;28;19920;-77
2024/02/21 11:33:05;;;;;;;;;;;;;;;9.31;100.00;101250.69;5069851;28;19956;-77
2024/02/21 11:35:32;;;;;;;;;;;;;;;9.35;100.00;101230.53;5052204;28;20215;-77
2024/02/21 11:38:07;;;;;;;;;;;;;;;9.36;100.00;101225.28;5070259;28;19920;-77
2024/02/21 11:40:33;;;;;;;;;;;;;;;9.39;100.00;101226.97;5070258;28;19924;-77
2024/02/21 11:42:59;;;;;;;;;;;;;;;9.40;100.00;101218.19;5070262;28;20297;-77
2024/02/21 11:45:26;;;;;;;;;;;;;;;9.32;100.00;101218.44;5070349;28;19920;-77
2024/02/21 11:47:51;;;;;;;;;;;;;;;9.27;100.00;101209.88;5070003;28;19977;-77
2024/02/21 11:50:16;;;;;;;;;;;;;;;9.29;100.00;101202.84;5070216;28;19920;-77
2024/02/21 11:52:41;;;;;;;;;;;;;;;9.30;100.00;101208.94;5071306;28;19983;-77
2024/02/21 11:55:08;;;;;;;;;;;;;;;9.31;100.00;101203.63;5056370;28;19954;-77
2024/02/21 11:57:35;;;;;;;;;;;;;;;9.27;100.00;101193.34;5074477;28;19916;-77
2024/02/21 12:00:10;;;;;;;;;;;;;;;9.30;100.00;101174.97;5073745;28;20162;-77
2024/02/21 12:02:35;;;;;;;;;;;;;;;9.30;100.00;101174.97;5074146;28;20258;-77
2024/02/21 12:05:00;;;;;;;;;;;;;;;9.27;100.00;101175.03;5073831;28;19924;-77
2024/02/21 12:07:28;;;;;;;;;;;;;;;9.25;100.00;101161.19;5073962;28;20181;-77
2024/02/21 12:09:53;;;;;;;;;;;;;;;9.19;100.00;101130.84;5075411;28;19931;-77
2024/02/21 12:12:21;;;;;;;;;;;;;;;9.21;100.00;101129.91;5074998;28;19917;-77
2024/02/21 12:14:53;;;;;;;;;;;;;;;9.26;100.00;101126.28;5073573;28;20416;-77
2024/02/21 12:17:19;;;;;;;;;;;;;;;9.24;100.00;101118.50;5074650;28;20195;-77
2024/02/21 12:19:45;;;;;;;;;;;;;;;9.24;100.00;101113.28;5078452;28;19916;-77
2024/02/21 12:22:15;;;;;;;;;;;;;;;9.20;100.00;101103.81;5078160;28;20210;-77
2024/02/21 12:24:47;;;;;;;;;;;;;;;9.20;100.00;101088.13;5078180;28;20266;-77
2024/02/21 12:27:12;;;;;;;;;;;;;;;9.18;100.00;101082.94;5077213;28;19923;-77
2024/02/21 12:29:37;;;;;;;;;;;;;;;9.17;100.00;101067.34;5078194;28;19963;-77